sensor_id;sensor_type;location;lat;lon;timestamp;temperature;humidity
13093;DHT22;6612;49.568;11.000;2022-12-11T00:02:06;3.90;64.40
13093;DHT22;6612;49.568;11.000;2022-12-11T00:04:32;3.90;64.30
13093;DHT22;6612;49.568;11.000;2022-12-11T00:06:59;3.90;64.30
13093;DHT22;6612;49.568;11.000;2022-12-11T00:09:26;3.90;65.00
13093;DHT22;6612;49.568;11.000;2022-12-11T00:11:53;4.00;64.20
13093;DHT22;6612;49.568;11.000;2022-12-11T00:14:20;4.00;64.10
13093;DHT22;6612;49.568;11.000;2022-12-11T00:16:47;4.00;63.90
13093;DHT22;6612;49.568;11.000;2022-12-11T00:19:16;3.90;63.50
13093;DHT22;6612;49.568;11.000;2022-12-11T00:21:43;4.00;63.40
13093;DHT22;6612;49.568;11.000;2022-12-11T00:24:10;4.00;63.40
13093;DHT22;6612;49.568;11.000;2022-12-11T00:26:37;4.00;63.40
13093;DHT22;6612;49.568;11.000;2022-12-11T00:29:04;4.00;63.40
13093;DHT22;6612;49.568;11.000;2022-12-11T00:31:33;4.00;64.20
13093;DHT22;6612;49.568;11.000;2022-12-11T00:34:00;4.00;63.40
13093;DHT22;6612;49.568;11.000;2022-12-11T00:36:29;4.00;63.40
13093;DHT22;6612;49.568;11.000;2022-12-11T00:38:56;4.00;63.20
13093;DHT22;6612;49.568;11.000;2022-12-11T00:41:23;4.00;63.20
13093;DHT22;6612;49.568;11.000;2022-12-11T00:43:50;4.00;63.10
13093;DHT22;6612;49.568;11.000;2022-12-11T00:46:17;4.00;63.10
13093;DHT22;6612;49.568;11.000;2022-12-11T00:48:44;4.00;63.10
13093;DHT22;6612;49.568;11.000;2022-12-11T00:51:13;4.00;63.10
13093;DHT22;6612;49.568;11.000;2022-12-11T00:53:41;3.90;63.60
13093;DHT22;6612;49.568;11.000;2022-12-11T00:56:10;3.90;62.70
13093;DHT22;6612;49.568;11.000;2022-12-11T00:58:37;3.90;62.70
13093;DHT22;6612;49.568;11.000;2022-12-11T01:01:06;3.90;62.70
13093;DHT22;6612;49.568;11.000;2022-12-11T01:03:33;3.90;62.70
13093;DHT22;6612;49.568;11.000;2022-12-11T01:06:00;3.80;62.70
13093;DHT22;6612;49.568;11.000;2022-12-11T01:08:27;3.80;62.70
13093;DHT22;6612;49.568;11.000;2022-12-11T01:11:02;3.80;62.80
13093;DHT22;6612;49.568;11.000;2022-12-11T01:13:29;3.80;62.70
13093;DHT22;6612;49.568;11.000;2022-12-11T01:15:56;3.70;62.90
13093;DHT22;6612;49.568;11.000;2022-12-11T01:18:23;3.70;63.00
13093;DHT22;6612;49.568;11.000;2022-12-11T01:20:50;3.70;63.10
13093;DHT22;6612;49.568;11.000;2022-12-11T01:23:17;3.70;63.10
13093;DHT22;6612;49.568;11.000;2022-12-11T01:25:44;3.70;63.20
13093;DHT22;6612;49.568;11.000;2022-12-11T01:28:13;3.70;63.20
13093;DHT22;6612;49.568;11.000;2022-12-11T01:30:41;3.70;63.30
13093;DHT22;6612;49.568;11.000;2022-12-11T01:33:08;3.80;63.60
13093;DHT22;6612;49.568;11.000;2022-12-11T01:35:37;3.70;63.60
13093;DHT22;6612;49.568;11.000;2022-12-11T01:38:04;3.70;63.70
13093;DHT22;6612;49.568;11.000;2022-12-11T01:40:31;3.80;63.80
13093;DHT22;6612;49.568;11.000;2022-12-11T01:42:58;3.80;63.80
13093;DHT22;6612;49.568;11.000;2022-12-11T01:45:38;3.90;64.70
13093;DHT22;6612;49.568;11.000;2022-12-11T01:48:08;3.80;63.70
13093;DHT22;6612;49.568;11.000;2022-12-11T01:50:38;3.80;63.90
13093;DHT22;6612;49.568;11.000;2022-12-11T01:53:09;3.80;64.00
13093;DHT22;6612;49.568;11.000;2022-12-11T01:55:39;3.80;64.00
13093;DHT22;6612;49.568;11.000;2022-12-11T01:58:07;3.80;64.00
13093;DHT22;6612;49.568;11.000;2022-12-11T02:00:37;3.90;64.00
13093;DHT22;6612;49.568;11.000;2022-12-11T02:03:04;3.90;64.00
13093;DHT22;6612;49.568;11.000;2022-12-11T02:05:31;3.80;63.90
13093;DHT22;6612;49.568;11.000;2022-12-11T02:08:00;4.00;64.00
13093;DHT22;6612;49.568;11.000;2022-12-11T02:10:36;3.90;64.00
13093;DHT22;6612;49.568;11.000;2022-12-11T02:13:10;4.00;64.10
13093;DHT22;6612;49.568;11.000;2022-12-11T02:15:43;4.00;64.30
13093;DHT22;6612;49.568;11.000;2022-12-11T02:18:17;4.00;64.30
13093;DHT22;6612;49.568;11.000;2022-12-11T02:20:50;4.00;64.40
13093;DHT22;6612;49.568;11.000;2022-12-11T02:23:50;4.00;64.30
13093;DHT22;6612;49.568;11.000;2022-12-11T02:26:30;4.10;64.10
13093;DHT22;6612;49.568;11.000;2022-12-11T02:29:05;4.10;64.30
13093;DHT22;6612;49.568;11.000;2022-12-11T02:31:36;4.10;64.30
13093;DHT22;6612;49.568;11.000;2022-12-11T02:34:08;4.10;64.40
13093;DHT22;6612;49.568;11.000;2022-12-11T02:36:38;4.10;64.40
13093;DHT22;6612;49.568;11.000;2022-12-11T02:39:09;4.20;64.50
13093;DHT22;6612;49.568;11.000;2022-12-11T02:41:38;4.10;64.50
13093;DHT22;6612;49.568;11.000;2022-12-11T02:44:10;4.20;64.50
13093;DHT22;6612;49.568;11.000;2022-12-11T02:46:38;4.20;64.50
13093;DHT22;6612;49.568;11.000;2022-12-11T02:49:07;4.20;64.50
13093;DHT22;6612;49.568;11.000;2022-12-11T02:51:38;4.20;64.50
13093;DHT22;6612;49.568;11.000;2022-12-11T02:54:10;4.30;64.50
13093;DHT22;6612;49.568;11.000;2022-12-11T02:56:41;4.30;64.60
13093;DHT22;6612;49.568;11.000;2022-12-11T02:59:13;4.30;64.50
13093;DHT22;6612;49.568;11.000;2022-12-11T03:01:41;4.30;64.50
13093;DHT22;6612;49.568;11.000;2022-12-11T03:04:08;4.30;64.60
13093;DHT22;6612;49.568;11.000;2022-12-11T03:06:38;4.30;64.60
13093;DHT22;6612;49.568;11.000;2022-12-11T03:09:07;4.40;64.50
13093;DHT22;6612;49.568;11.000;2022-12-11T03:11:34;4.40;64.50
13093;DHT22;6612;49.568;11.000;2022-12-11T03:14:01;4.40;64.50
13093;DHT22;6612;49.568;11.000;2022-12-11T03:16:34;4.40;64.60
13093;DHT22;6612;49.568;11.000;2022-12-11T03:19:10;4.40;64.70
13093;DHT22;6612;49.568;11.000;2022-12-11T03:21:43;4.40;64.70
13093;DHT22;6612;49.568;11.000;2022-12-11T03:24:14;4.40;64.80
13093;DHT22;6612;49.568;11.000;2022-12-11T03:26:49;4.40;64.90
13093;DHT22;6612;49.568;11.000;2022-12-11T03:29:22;4.40;64.90
13093;DHT22;6612;49.568;11.000;2022-12-11T03:31:54;4.40;64.90
13093;DHT22;6612;49.568;11.000;2022-12-11T03:34:26;4.50;65.00
13093;DHT22;6612;49.568;11.000;2022-12-11T03:36:56;4.50;65.70
13093;DHT22;6612;49.568;11.000;2022-12-11T03:39:26;4.50;65.00
13093;DHT22;6612;49.568;11.000;2022-12-11T03:41:55;4.50;64.90
13093;DHT22;6612;49.568;11.000;2022-12-11T03:44:23;4.50;64.90
13093;DHT22;6612;49.568;11.000;2022-12-11T03:46:54;4.60;65.00
13093;DHT22;6612;49.568;11.000;2022-12-11T03:49:25;4.40;64.70
13093;DHT22;6612;49.568;11.000;2022-12-11T03:51:55;4.60;64.70
13093;DHT22;6612;49.568;11.000;2022-12-11T03:54:24;4.60;64.70
13093;DHT22;6612;49.568;11.000;2022-12-11T03:56:54;4.60;64.70
13093;DHT22;6612;49.568;11.000;2022-12-11T03:59:22;4.60;64.70
13093;DHT22;6612;49.568;11.000;2022-12-11T04:01:49;4.60;64.70
13093;DHT22;6612;49.568;11.000;2022-12-11T04:04:17;4.60;64.70
13093;DHT22;6612;49.568;11.000;2022-12-11T04:06:44;4.60;64.70
13093;DHT22;6612;49.568;11.000;2022-12-11T04:09:11;4.60;64.70
13093;DHT22;6612;49.568;11.000;2022-12-11T04:11:38;4.60;64.70
13093;DHT22;6612;49.568;11.000;2022-12-11T04:14:09;4.60;64.70
13093;DHT22;6612;49.568;11.000;2022-12-11T04:16:54;4.60;64.70
13093;DHT22;6612;49.568;11.000;2022-12-11T04:19:23;4.60;64.70
13093;DHT22;6612;49.568;11.000;2022-12-11T04:22:09;4.60;64.60
13093;DHT22;6612;49.568;11.000;2022-12-11T04:24:59;4.60;64.50
13093;DHT22;6612;49.568;11.000;2022-12-11T04:27:26;4.60;64.50
13093;DHT22;6612;49.568;11.000;2022-12-11T04:30:15;4.60;64.60
13093;DHT22;6612;49.568;11.000;2022-12-11T04:32:43;4.60;64.50
13093;DHT22;6612;49.568;11.000;2022-12-11T04:35:12;4.60;64.50
13093;DHT22;6612;49.568;11.000;2022-12-11T04:37:40;4.60;64.50
13093;DHT22;6612;49.568;11.000;2022-12-11T04:40:10;4.60;64.60
13093;DHT22;6612;49.568;11.000;2022-12-11T04:42:38;4.60;64.60
13093;DHT22;6612;49.568;11.000;2022-12-11T04:45:06;4.60;64.70
13093;DHT22;6612;49.568;11.000;2022-12-11T04:47:34;4.60;64.60
13093;DHT22;6612;49.568;11.000;2022-12-11T04:50:01;4.60;64.50
13093;DHT22;6612;49.568;11.000;2022-12-11T04:52:30;4.70;64.40
13093;DHT22;6612;49.568;11.000;2022-12-11T04:54:57;4.60;64.00
13093;DHT22;6612;49.568;11.000;2022-12-11T04:57:23;4.50;63.80
13093;DHT22;6612;49.568;11.000;2022-12-11T04:59:50;4.50;63.80
13093;DHT22;6612;49.568;11.000;2022-12-11T05:02:17;4.50;63.70
13093;DHT22;6612;49.568;11.000;2022-12-11T05:04:44;4.50;63.50
13093;DHT22;6612;49.568;11.000;2022-12-11T05:07:11;4.50;63.40
13093;DHT22;6612;49.568;11.000;2022-12-11T05:09:40;4.40;63.10
13093;DHT22;6612;49.568;11.000;2022-12-11T05:12:06;4.40;62.90
13093;DHT22;6612;49.568;11.000;2022-12-11T05:14:33;4.30;62.50
13093;DHT22;6612;49.568;11.000;2022-12-11T05:17:00;4.40;62.40
13093;DHT22;6612;49.568;11.000;2022-12-11T05:19:27;4.20;62.20
13093;DHT22;6612;49.568;11.000;2022-12-11T05:21:54;4.10;62.00
13093;DHT22;6612;49.568;11.000;2022-12-11T05:24:21;4.10;62.10
13093;DHT22;6612;49.568;11.000;2022-12-11T05:26:49;4.00;62.10
13093;DHT22;6612;49.568;11.000;2022-12-11T05:29:16;3.90;62.10
13093;DHT22;6612;49.568;11.000;2022-12-11T05:31:43;4.00;62.30
13093;DHT22;6612;49.568;11.000;2022-12-11T05:34:10;3.80;62.40
13093;DHT22;6612;49.568;11.000;2022-12-11T05:36:37;3.80;62.50
13093;DHT22;6612;49.568;11.000;2022-12-11T05:39:05;3.80;62.70
13093;DHT22;6612;49.568;11.000;2022-12-11T05:41:32;3.70;62.80
13093;DHT22;6612;49.568;11.000;2022-12-11T05:44:01;3.70;63.00
13093;DHT22;6612;49.568;11.000;2022-12-11T05:46:29;3.70;63.10
13093;DHT22;6612;49.568;11.000;2022-12-11T05:48:57;3.70;63.20
13093;DHT22;6612;49.568;11.000;2022-12-11T05:51:25;3.70;63.10
13093;DHT22;6612;49.568;11.000;2022-12-11T05:53:53;3.80;63.00
13093;DHT22;6612;49.568;11.000;2022-12-11T05:56:22;3.60;62.70
13093;DHT22;6612;49.568;11.000;2022-12-11T05:58:51;3.60;62.50
13093;DHT22;6612;49.568;11.000;2022-12-11T06:01:21;3.60;62.40
13093;DHT22;6612;49.568;11.000;2022-12-11T06:03:48;3.60;62.30
13093;DHT22;6612;49.568;11.000;2022-12-11T06:06:15;3.50;62.30
13093;DHT22;6612;49.568;11.000;2022-12-11T06:08:42;3.50;62.50
13093;DHT22;6612;49.568;11.000;2022-12-11T06:11:11;3.40;62.70
13093;DHT22;6612;49.568;11.000;2022-12-11T06:13:39;3.40;62.90
13093;DHT22;6612;49.568;11.000;2022-12-11T06:16:06;3.40;63.10
13093;DHT22;6612;49.568;11.000;2022-12-11T06:18:36;3.40;63.30
13093;DHT22;6612;49.568;11.000;2022-12-11T06:21:13;3.40;63.20
13093;DHT22;6612;49.568;11.000;2022-12-11T06:23:41;3.40;63.30
13093;DHT22;6612;49.568;11.000;2022-12-11T06:26:08;3.40;63.40
13093;DHT22;6612;49.568;11.000;2022-12-11T06:28:36;3.40;63.40
13093;DHT22;6612;49.568;11.000;2022-12-11T06:31:03;3.40;63.40
13093;DHT22;6612;49.568;11.000;2022-12-11T06:33:31;3.40;63.50
13093;DHT22;6612;49.568;11.000;2022-12-11T06:36:02;3.40;63.40
13093;DHT22;6612;49.568;11.000;2022-12-11T06:38:29;3.40;63.30
13093;DHT22;6612;49.568;11.000;2022-12-11T06:40:56;3.40;63.30
13093;DHT22;6612;49.568;11.000;2022-12-11T06:43:23;3.30;63.10
13093;DHT22;6612;49.568;11.000;2022-12-11T06:45:51;3.40;63.10
13093;DHT22;6612;49.568;11.000;2022-12-11T06:48:18;3.30;62.90
13093;DHT22;6612;49.568;11.000;2022-12-11T06:50:45;3.30;62.80
13093;DHT22;6612;49.568;11.000;2022-12-11T06:53:14;3.30;62.70
13093;DHT22;6612;49.568;11.000;2022-12-11T06:55:41;3.30;62.50
13093;DHT22;6612;49.568;11.000;2022-12-11T06:58:08;3.20;62.20
13093;DHT22;6612;49.568;11.000;2022-12-11T07:00:37;3.10;62.20
13093;DHT22;6612;49.568;11.000;2022-12-11T07:03:05;3.10;62.30
13093;DHT22;6612;49.568;11.000;2022-12-11T07:05:32;3.10;62.70
13093;DHT22;6612;49.568;11.000;2022-12-11T07:07:59;3.10;63.10
13093;DHT22;6612;49.568;11.000;2022-12-11T07:10:27;3.10;63.40
13093;DHT22;6612;49.568;11.000;2022-12-11T07:12:54;3.20;63.70
13093;DHT22;6612;49.568;11.000;2022-12-11T07:15:21;3.10;63.80
13093;DHT22;6612;49.568;11.000;2022-12-11T07:17:48;3.10;63.80
13093;DHT22;6612;49.568;11.000;2022-12-11T07:20:15;3.20;64.00
13093;DHT22;6612;49.568;11.000;2022-12-11T07:22:43;3.20;64.10
13093;DHT22;6612;49.568;11.000;2022-12-11T07:25:10;3.30;64.30
13093;DHT22;6612;49.568;11.000;2022-12-11T07:27:38;3.30;64.20
13093;DHT22;6612;49.568;11.000;2022-12-11T07:30:07;3.40;64.20
13093;DHT22;6612;49.568;11.000;2022-12-11T07:32:35;3.40;64.10
13093;DHT22;6612;49.568;11.000;2022-12-11T07:35:02;3.40;64.10
13093;DHT22;6612;49.568;11.000;2022-12-11T07:37:29;3.50;64.30
13093;DHT22;6612;49.568;11.000;2022-12-11T07:39:56;3.50;64.10
13093;DHT22;6612;49.568;11.000;2022-12-11T07:42:23;3.50;64.00
13093;DHT22;6612;49.568;11.000;2022-12-11T07:44:51;3.70;64.10
13093;DHT22;6612;49.568;11.000;2022-12-11T07:47:18;3.60;63.90
13093;DHT22;6612;49.568;11.000;2022-12-11T07:49:46;3.60;63.90
13093;DHT22;6612;49.568;11.000;2022-12-11T07:52:13;3.70;64.00
13093;DHT22;6612;49.568;11.000;2022-12-11T07:54:40;3.70;63.90
13093;DHT22;6612;49.568;11.000;2022-12-11T07:57:08;3.70;63.90
13093;DHT22;6612;49.568;11.000;2022-12-11T07:59:34;3.60;63.80
13093;DHT22;6612;49.568;11.000;2022-12-11T08:02:03;3.80;64.00
13093;DHT22;6612;49.568;11.000;2022-12-11T08:04:30;3.90;64.10
13093;DHT22;6612;49.568;11.000;2022-12-11T08:06:58;3.80;64.20
13093;DHT22;6612;49.568;11.000;2022-12-11T08:09:26;3.90;64.30
13093;DHT22;6612;49.568;11.000;2022-12-11T08:11:54;3.90;64.30
13093;DHT22;6612;49.568;11.000;2022-12-11T08:14:21;3.90;64.10
13093;DHT22;6612;49.568;11.000;2022-12-11T08:16:49;4.00;64.10
13093;DHT22;6612;49.568;11.000;2022-12-11T08:19:18;4.00;63.90
13093;DHT22;6612;49.568;11.000;2022-12-11T08:21:46;4.00;63.60
13093;DHT22;6612;49.568;11.000;2022-12-11T08:24:15;4.10;63.60
13093;DHT22;6612;49.568;11.000;2022-12-11T08:26:45;4.10;63.60
13093;DHT22;6612;49.568;11.000;2022-12-11T08:29:14;4.10;63.60
13093;DHT22;6612;49.568;11.000;2022-12-11T08:31:42;4.10;63.70
13093;DHT22;6612;49.568;11.000;2022-12-11T08:34:10;4.20;64.00
13093;DHT22;6612;49.568;11.000;2022-12-11T08:36:40;4.20;64.10
13093;DHT22;6612;49.568;11.000;2022-12-11T08:39:09;4.30;64.10
13093;DHT22;6612;49.568;11.000;2022-12-11T08:41:37;4.30;64.20
13093;DHT22;6612;49.568;11.000;2022-12-11T08:44:08;4.30;64.30
13093;DHT22;6612;49.568;11.000;2022-12-11T08:46:37;4.40;64.30
13093;DHT22;6612;49.568;11.000;2022-12-11T08:49:05;4.50;64.30
13093;DHT22;6612;49.568;11.000;2022-12-11T08:51:33;4.50;65.00
13093;DHT22;6612;49.568;11.000;2022-12-11T08:54:03;4.50;64.20
13093;DHT22;6612;49.568;11.000;2022-12-11T08:56:31;4.60;64.10
13093;DHT22;6612;49.568;11.000;2022-12-11T08:58:59;4.60;64.20
13093;DHT22;6612;49.568;11.000;2022-12-11T09:01:29;4.70;64.00
13093;DHT22;6612;49.568;11.000;2022-12-11T09:03:57;4.70;64.00
13093;DHT22;6612;49.568;11.000;2022-12-11T09:06:27;4.80;64.00
13093;DHT22;6612;49.568;11.000;2022-12-11T09:08:58;4.80;63.50
13093;DHT22;6612;49.568;11.000;2022-12-11T09:11:29;4.90;63.40
13093;DHT22;6612;49.568;11.000;2022-12-11T09:13:58;4.90;63.30
13093;DHT22;6612;49.568;11.000;2022-12-11T09:16:26;4.90;63.40
13093;DHT22;6612;49.568;11.000;2022-12-11T09:18:58;4.90;63.20
13093;DHT22;6612;49.568;11.000;2022-12-11T09:21:28;5.00;63.30
13093;DHT22;6612;49.568;11.000;2022-12-11T09:23:58;5.00;63.20
13093;DHT22;6612;49.568;11.000;2022-12-11T09:26:29;5.00;63.10
13093;DHT22;6612;49.568;11.000;2022-12-11T09:28:57;5.00;63.00
13093;DHT22;6612;49.568;11.000;2022-12-11T09:31:27;5.00;63.10
13093;DHT22;6612;49.568;11.000;2022-12-11T09:33:57;5.00;63.10
13093;DHT22;6612;49.568;11.000;2022-12-11T09:36:26;5.10;63.10
13093;DHT22;6612;49.568;11.000;2022-12-11T09:38:54;5.10;63.00
13093;DHT22;6612;49.568;11.000;2022-12-11T09:41:34;5.10;63.00
13093;DHT22;6612;49.568;11.000;2022-12-11T09:44:15;5.10;62.50
13093;DHT22;6612;49.568;11.000;2022-12-11T09:46:45;5.20;62.70
13093;DHT22;6612;49.568;11.000;2022-12-11T09:49:22;5.20;63.60
13093;DHT22;6612;49.568;11.000;2022-12-11T09:52:00;5.20;62.50
13093;DHT22;6612;49.568;11.000;2022-12-11T09:54:31;5.20;62.20
13093;DHT22;6612;49.568;11.000;2022-12-11T09:57:09;5.20;62.40
13093;DHT22;6612;49.568;11.000;2022-12-11T09:59:50;5.30;62.00
13093;DHT22;6612;49.568;11.000;2022-12-11T10:02:34;5.30;62.00
13093;DHT22;6612;49.568;11.000;2022-12-11T10:05:14;5.30;62.20
13093;DHT22;6612;49.568;11.000;2022-12-11T10:07:49;5.40;62.10
13093;DHT22;6612;49.568;11.000;2022-12-11T10:10:21;5.40;62.10
13093;DHT22;6612;49.568;11.000;2022-12-11T10:12:59;5.50;62.20
13093;DHT22;6612;49.568;11.000;2022-12-11T10:15:36;5.50;61.90
13093;DHT22;6612;49.568;11.000;2022-12-11T10:18:11;5.50;61.80
13093;DHT22;6612;49.568;11.000;2022-12-11T10:20:40;5.60;61.70
13093;DHT22;6612;49.568;11.000;2022-12-11T10:23:16;5.60;61.90
13093;DHT22;6612;49.568;11.000;2022-12-11T10:25:49;5.60;61.20
13093;DHT22;6612;49.568;11.000;2022-12-11T10:28:20;5.60;61.00
13093;DHT22;6612;49.568;11.000;2022-12-11T10:30:52;5.60;60.70
13093;DHT22;6612;49.568;11.000;2022-12-11T10:33:27;5.60;60.50
13093;DHT22;6612;49.568;11.000;2022-12-11T10:35:59;5.60;60.40
13093;DHT22;6612;49.568;11.000;2022-12-11T10:38:29;5.60;60.70
13093;DHT22;6612;49.568;11.000;2022-12-11T10:40:59;5.50;60.60
13093;DHT22;6612;49.568;11.000;2022-12-11T10:43:34;5.50;60.60
13093;DHT22;6612;49.568;11.000;2022-12-11T10:46:03;5.50;60.40
13093;DHT22;6612;49.568;11.000;2022-12-11T10:48:31;5.50;60.90
13093;DHT22;6612;49.568;11.000;2022-12-11T10:51:02;5.50;60.80
13093;DHT22;6612;49.568;11.000;2022-12-11T10:53:32;5.50;60.60
13093;DHT22;6612;49.568;11.000;2022-12-11T10:56:01;5.50;60.50
13093;DHT22;6612;49.568;11.000;2022-12-11T10:58:30;5.50;60.50
13093;DHT22;6612;49.568;11.000;2022-12-11T11:01:08;5.50;60.60
13093;DHT22;6612;49.568;11.000;2022-12-11T11:03:50;5.50;60.10
13093;DHT22;6612;49.568;11.000;2022-12-11T11:06:20;5.50;60.20
13093;DHT22;6612;49.568;11.000;2022-12-11T11:08:50;5.50;61.50
13093;DHT22;6612;49.568;11.000;2022-12-11T11:11:24;5.50;60.80
13093;DHT22;6612;49.568;11.000;2022-12-11T11:14:04;5.50;60.50
13093;DHT22;6612;49.568;11.000;2022-12-11T11:16:35;5.50;60.20
13093;DHT22;6612;49.568;11.000;2022-12-11T11:19:04;5.50;60.50
13093;DHT22;6612;49.568;11.000;2022-12-11T11:21:33;5.50;60.70
13093;DHT22;6612;49.568;11.000;2022-12-11T11:24:03;5.50;60.60
13093;DHT22;6612;49.568;11.000;2022-12-11T11:26:31;5.50;60.60
13093;DHT22;6612;49.568;11.000;2022-12-11T11:29:00;5.50;60.40
13093;DHT22;6612;49.568;11.000;2022-12-11T11:31:33;5.50;60.30
13093;DHT22;6612;49.568;11.000;2022-12-11T11:34:05;5.50;60.00
13093;DHT22;6612;49.568;11.000;2022-12-11T11:36:38;5.50;60.20
13093;DHT22;6612;49.568;11.000;2022-12-11T11:39:16;5.50;60.10
13093;DHT22;6612;49.568;11.000;2022-12-11T11:41:51;5.50;60.00
13093;DHT22;6612;49.568;11.000;2022-12-11T11:44:26;5.50;60.10
13093;DHT22;6612;49.568;11.000;2022-12-11T11:47:01;5.50;60.10
13093;DHT22;6612;49.568;11.000;2022-12-11T11:49:42;5.50;60.00
13093;DHT22;6612;49.568;11.000;2022-12-11T11:52:14;5.60;60.10
13093;DHT22;6612;49.568;11.000;2022-12-11T11:54:49;5.60;60.30
13093;DHT22;6612;49.568;11.000;2022-12-11T11:57:26;5.60;60.30
13093;DHT22;6612;49.568;11.000;2022-12-11T12:00:00;5.60;60.20
13093;DHT22;6612;49.568;11.000;2022-12-11T12:02:36;5.60;60.10
13093;DHT22;6612;49.568;11.000;2022-12-11T12:05:08;5.70;60.40
13093;DHT22;6612;49.568;11.000;2022-12-11T12:07:44;5.70;60.40
13093;DHT22;6612;49.568;11.000;2022-12-11T12:10:18;5.70;60.10
13093;DHT22;6612;49.568;11.000;2022-12-11T12:12:55;5.90;60.60
13093;DHT22;6612;49.568;11.000;2022-12-11T12:15:35;5.80;60.20
13093;DHT22;6612;49.568;11.000;2022-12-11T12:18:13;5.90;59.90
13093;DHT22;6612;49.568;11.000;2022-12-11T12:20:47;5.90;59.70
13093;DHT22;6612;49.568;11.000;2022-12-11T12:23:35;5.90;59.60
13093;DHT22;6612;49.568;11.000;2022-12-11T12:26:10;6.00;59.20
13093;DHT22;6612;49.568;11.000;2022-12-11T12:28:43;6.00;59.50
13093;DHT22;6612;49.568;11.000;2022-12-11T12:31:29;6.00;59.30
13093;DHT22;6612;49.568;11.000;2022-12-11T12:34:11;6.00;58.70
13093;DHT22;6612;49.568;11.000;2022-12-11T12:36:47;6.00;59.10
13093;DHT22;6612;49.568;11.000;2022-12-11T12:39:23;6.00;59.40
13093;DHT22;6612;49.568;11.000;2022-12-11T12:41:57;5.90;59.60
13093;DHT22;6612;49.568;11.000;2022-12-11T12:44:33;6.00;59.60
13093;DHT22;6612;49.568;11.000;2022-12-11T12:47:07;6.10;59.60
13093;DHT22;6612;49.568;11.000;2022-12-11T12:49:41;6.10;59.40
13093;DHT22;6612;49.568;11.000;2022-12-11T12:52:13;6.20;59.50
13093;DHT22;6612;49.568;11.000;2022-12-11T12:54:44;6.20;59.30
13093;DHT22;6612;49.568;11.000;2022-12-11T12:57:34;6.20;59.30
13093;DHT22;6612;49.568;11.000;2022-12-11T13:00:04;6.30;59.50
13093;DHT22;6612;49.568;11.000;2022-12-11T13:02:35;6.30;59.50
13093;DHT22;6612;49.568;11.000;2022-12-11T13:05:19;6.30;59.50
13093;DHT22;6612;49.568;11.000;2022-12-11T13:07:49;6.40;58.60
13093;DHT22;6612;49.568;11.000;2022-12-11T13:10:27;6.40;59.20
13093;DHT22;6612;49.568;11.000;2022-12-11T13:12:57;6.40;58.70
13093;DHT22;6612;49.568;11.000;2022-12-11T13:15:28;6.40;58.70
13093;DHT22;6612;49.568;11.000;2022-12-11T13:17:57;6.40;58.10
13093;DHT22;6612;49.568;11.000;2022-12-11T13:20:29;6.40;57.90
13093;DHT22;6612;49.568;11.000;2022-12-11T13:23:17;6.40;57.40
13093;DHT22;6612;49.568;11.000;2022-12-11T13:25:49;6.30;56.30
13093;DHT22;6612;49.568;11.000;2022-12-11T13:28:24;6.20;57.10
13093;DHT22;6612;49.568;11.000;2022-12-11T13:31:06;6.20;56.80
13093;DHT22;6612;49.568;11.000;2022-12-11T13:33:40;6.10;56.60
13093;DHT22;6612;49.568;11.000;2022-12-11T13:36:32;6.10;56.80
13093;DHT22;6612;49.568;11.000;2022-12-11T13:39:04;6.00;55.90
13093;DHT22;6612;49.568;11.000;2022-12-11T13:41:35;5.90;56.80
13093;DHT22;6612;49.568;11.000;2022-12-11T13:44:04;5.80;56.80
13093;DHT22;6612;49.568;11.000;2022-12-11T13:46:35;5.80;57.00
13093;DHT22;6612;49.568;11.000;2022-12-11T13:49:06;5.80;56.90
13093;DHT22;6612;49.568;11.000;2022-12-11T13:51:51;5.80;57.00
13093;DHT22;6612;49.568;11.000;2022-12-11T13:54:18;5.70;56.70
13093;DHT22;6612;49.568;11.000;2022-12-11T13:56:57;5.70;57.10
13093;DHT22;6612;49.568;11.000;2022-12-11T13:59:28;5.70;56.60
13093;DHT22;6612;49.568;11.000;2022-12-11T14:01:59;5.60;57.00
13093;DHT22;6612;49.568;11.000;2022-12-11T14:04:27;5.60;57.10
13093;DHT22;6612;49.568;11.000;2022-12-11T14:06:57;5.60;57.20
13093;DHT22;6612;49.568;11.000;2022-12-11T14:09:26;5.60;57.00
13093;DHT22;6612;49.568;11.000;2022-12-11T14:11:54;5.60;57.00
13093;DHT22;6612;49.568;11.000;2022-12-11T14:14:28;5.50;56.90
13093;DHT22;6612;49.568;11.000;2022-12-11T14:16:57;5.50;56.80
13093;DHT22;6612;49.568;11.000;2022-12-11T14:19:24;5.60;57.10
13093;DHT22;6612;49.568;11.000;2022-12-11T14:22:00;5.50;57.10
13093;DHT22;6612;49.568;11.000;2022-12-11T14:24:28;5.50;56.90
13093;DHT22;6612;49.568;11.000;2022-12-11T14:26:56;5.40;57.20
13093;DHT22;6612;49.568;11.000;2022-12-11T14:29:25;5.40;57.20
13093;DHT22;6612;49.568;11.000;2022-12-11T14:31:53;5.40;57.10
13093;DHT22;6612;49.568;11.000;2022-12-11T14:34:23;5.40;57.20
13093;DHT22;6612;49.568;11.000;2022-12-11T14:36:51;5.40;57.10
13093;DHT22;6612;49.568;11.000;2022-12-11T14:39:23;5.30;57.10
13093;DHT22;6612;49.568;11.000;2022-12-11T14:41:56;5.30;56.80
13093;DHT22;6612;49.568;11.000;2022-12-11T14:44:27;5.30;56.80
13093;DHT22;6612;49.568;11.000;2022-12-11T14:46:57;5.30;57.00
13093;DHT22;6612;49.568;11.000;2022-12-11T14:49:32;5.20;56.90
13093;DHT22;6612;49.568;11.000;2022-12-11T14:52:02;5.30;57.00
13093;DHT22;6612;49.568;11.000;2022-12-11T14:54:36;5.20;57.00
13093;DHT22;6612;49.568;11.000;2022-12-11T14:57:04;5.20;56.80
13093;DHT22;6612;49.568;11.000;2022-12-11T14:59:36;5.10;57.00
13093;DHT22;6612;49.568;11.000;2022-12-11T15:02:21;5.10;56.90
13093;DHT22;6612;49.568;11.000;2022-12-11T15:05:02;5.10;56.50
13093;DHT22;6612;49.568;11.000;2022-12-11T15:07:31;5.10;56.80
13093;DHT22;6612;49.568;11.000;2022-12-11T15:09:59;5.10;57.10
13093;DHT22;6612;49.568;11.000;2022-12-11T15:12:26;5.00;56.90
13093;DHT22;6612;49.568;11.000;2022-12-11T15:14:55;4.90;56.90
13093;DHT22;6612;49.568;11.000;2022-12-11T15:17:24;4.90;56.90
13093;DHT22;6612;49.568;11.000;2022-12-11T15:19:53;4.90;56.90
13093;DHT22;6612;49.568;11.000;2022-12-11T15:22:22;4.90;57.00
13093;DHT22;6612;49.568;11.000;2022-12-11T15:24:53;4.90;57.10
13093;DHT22;6612;49.568;11.000;2022-12-11T15:27:29;4.80;57.10
13093;DHT22;6612;49.568;11.000;2022-12-11T15:29:57;4.90;56.90
13093;DHT22;6612;49.568;11.000;2022-12-11T15:32:24;4.80;57.10
13093;DHT22;6612;49.568;11.000;2022-12-11T15:34:53;4.80;57.10
13093;DHT22;6612;49.568;11.000;2022-12-11T15:37:22;4.70;57.00
13093;DHT22;6612;49.568;11.000;2022-12-11T15:39:50;4.70;57.00
13093;DHT22;6612;49.568;11.000;2022-12-11T15:42:24;4.70;57.10
13093;DHT22;6612;49.568;11.000;2022-12-11T15:44:53;4.70;57.00
13093;DHT22;6612;49.568;11.000;2022-12-11T15:47:23;4.70;57.20
13093;DHT22;6612;49.568;11.000;2022-12-11T15:49:53;4.70;57.80
13093;DHT22;6612;49.568;11.000;2022-12-11T15:52:21;4.60;57.10
13093;DHT22;6612;49.568;11.000;2022-12-11T15:54:48;4.60;57.30
13093;DHT22;6612;49.568;11.000;2022-12-11T15:57:16;4.50;57.30
13093;DHT22;6612;49.568;11.000;2022-12-11T15:59:49;4.60;57.30
13093;DHT22;6612;49.568;11.000;2022-12-11T16:02:17;4.50;57.10
13093;DHT22;6612;49.568;11.000;2022-12-11T16:04:44;4.50;57.20
13093;DHT22;6612;49.568;11.000;2022-12-11T16:07:15;4.50;57.10